sensor_id;sensor_type;location;lat;lon;timestamp;pressure;altitude;pressure_sealevel;temperature;humidity
62055;BME280;48653;51.742;-1.256;2023-07-28T00:01:47;99858.50;;;18.85;51.57
62055;BME280;48653;51.742;-1.256;2023-07-28T00:04:12;99851.91;;;18.20;52.79
62055;BME280;48653;51.742;-1.256;2023-07-28T00:06:37;99847.53;;;18.16;52.90
62055;BME280;48653;51.742;-1.256;2023-07-28T00:09:02;99845.69;;;18.17;53.40
62055;BME280;48653;51.742;-1.256;2023-07-28T00:11:27;99843.01;;;17.98;53.41
62055;BME280;48653;51.742;-1.256;2023-07-28T00:13:52;99843.78;;;18.60;52.46
62055;BME280;48653;51.742;-1.256;2023-07-28T00:16:17;99845.11;;;18.34;52.21
62055;BME280;48653;51.742;-1.256;2023-07-28T00:18:42;99846.63;;;19.11;51.06
62055;BME280;48653;51.742;-1.256;2023-07-28T00:21:07;99850.20;;;17.94;53.04
62055;BME280;48653;51.742;-1.256;2023-07-28T00:23:32;99852.86;;;18.33;52.99
62055;BME280;48653;51.742;-1.256;2023-07-28T00:25:58;99853.79;;;18.40;52.37
62055;BME280;48653;51.742;-1.256;2023-07-28T00:28:22;99856.39;;;18.41;52.17
62055;BME280;48653;51.742;-1.256;2023-07-28T00:30:49;99855.36;;;18.73;51.56
62055;BME280;48653;51.742;-1.256;2023-07-28T00:33:13;99855.11;;;18.47;52.73
62055;BME280;48653;51.742;-1.256;2023-07-28T00:35:37;99854.80;;;18.47;52.40
62055;BME280;48653;51.742;-1.256;2023-07-28T00:38:02;99854.93;;;18.70;51.83
62055;BME280;48653;51.742;-1.256;2023-07-28T00:40:27;99853.12;;;18.32;51.80
62055;BME280;48653;51.742;-1.256;2023-07-28T00:42:53;99853.67;;;18.65;51.46
62055;BME280;48653;51.742;-1.256;2023-07-28T00:45:17;99852.96;;;18.54;51.60
62055;BME280;48653;51.742;-1.256;2023-07-28T00:47:43;99849.72;;;18.73;51.13
62055;BME280;48653;51.742;-1.256;2023-07-28T00:50:09;99849.89;;;19.04;50.88
62055;BME280;48653;51.742;-1.256;2023-07-28T00:52:33;99852.30;;;18.63;50.82
62055;BME280;48653;51.742;-1.256;2023-07-28T00:54:58;99854.71;;;18.84;51.20
62055;BME280;48653;51.742;-1.256;2023-07-28T00:57:23;99849.84;;;18.84;51.27
62055;BME280;48653;51.742;-1.256;2023-07-28T00:59:48;99853.87;;;18.59;51.21
62055;BME280;48653;51.742;-1.256;2023-07-28T01:02:13;99854.64;;;18.44;51.38
62055;BME280;48653;51.742;-1.256;2023-07-28T01:04:38;99853.09;;;18.41;52.05
62055;BME280;48653;51.742;-1.256;2023-07-28T01:07:09;99852.55;;;17.48;54.67
62055;BME280;48653;51.742;-1.256;2023-07-28T01:09:34;99850.90;;;18.61;52.02
62055;BME280;48653;51.742;-1.256;2023-07-28T01:11:53;99849.97;;;18.54;52.30
62055;BME280;48653;51.742;-1.256;2023-07-28T01:14:18;99849.92;;;18.62;51.91
62055;BME280;48653;51.742;-1.256;2023-07-28T01:16:43;99848.36;;;18.90;51.55
62055;BME280;48653;51.742;-1.256;2023-07-28T01:19:09;99846.27;;;18.92;50.78
62055;BME280;48653;51.742;-1.256;2023-07-28T01:21:33;99852.85;;;18.81;50.74
62055;BME280;48653;51.742;-1.256;2023-07-28T01:24:05;99853.79;;;18.72;51.58
62055;BME280;48653;51.742;-1.256;2023-07-28T01:26:32;99851.46;;;18.45;52.18
62055;BME280;48653;51.742;-1.256;2023-07-28T01:28:48;99851.54;;;18.43;53.09
62055;BME280;48653;51.742;-1.256;2023-07-28T01:31:13;99851.60;;;18.53;52.81
62055;BME280;48653;51.742;-1.256;2023-07-28T01:33:38;99853.49;;;18.62;52.00
62055;BME280;48653;51.742;-1.256;2023-07-28T01:36:03;99849.40;;;18.51;52.09
62055;BME280;48653;51.742;-1.256;2023-07-28T01:38:28;99850.49;;;18.66;51.84
62055;BME280;48653;51.742;-1.256;2023-07-28T01:40:53;99852.14;;;18.72;51.66
62055;BME280;48653;51.742;-1.256;2023-07-28T01:43:18;99852.53;;;18.70;51.89
62055;BME280;48653;51.742;-1.256;2023-07-28T01:45:43;99851.89;;;17.85;53.41
62055;BME280;48653;51.742;-1.256;2023-07-28T01:48:08;99850.91;;;18.31;52.99
62055;BME280;48653;51.742;-1.256;2023-07-28T01:50:33;99853.28;;;18.59;52.12
62055;BME280;48653;51.742;-1.256;2023-07-28T01:52:58;99848.56;;;18.80;51.79
62055;BME280;48653;51.742;-1.256;2023-07-28T01:55:23;99851.66;;;18.29;53.13
62055;BME280;48653;51.742;-1.256;2023-07-28T01:57:56;99854.09;;;18.59;52.74
62055;BME280;48653;51.742;-1.256;2023-07-28T02:00:14;99851.58;;;18.28;52.61
62055;BME280;48653;51.742;-1.256;2023-07-28T02:02:38;99854.10;;;18.42;52.94
62055;BME280;48653;51.742;-1.256;2023-07-28T02:05:03;99854.29;;;18.10;53.87
62055;BME280;48653;51.742;-1.256;2023-07-28T02:07:28;99849.43;;;18.63;52.48
62055;BME280;48653;51.742;-1.256;2023-07-28T02:09:53;99842.81;;;18.57;52.01
62055;BME280;48653;51.742;-1.256;2023-07-28T02:12:18;99846.79;;;17.75;53.65
62055;BME280;48653;51.742;-1.256;2023-07-28T02:14:43;99844.36;;;18.24;53.00
62055;BME280;48653;51.742;-1.256;2023-07-28T02:17:08;99844.76;;;18.51;52.67
62055;BME280;48653;51.742;-1.256;2023-07-28T02:19:33;99843.89;;;18.45;52.13
62055;BME280;48653;51.742;-1.256;2023-07-28T02:21:58;99845.76;;;18.18;52.68
62055;BME280;48653;51.742;-1.256;2023-07-28T02:24:23;99843.29;;;18.43;52.15
62055;BME280;48653;51.742;-1.256;2023-07-28T02:26:48;99843.62;;;18.58;53.01
62055;BME280;48653;51.742;-1.256;2023-07-28T02:29:13;99840.30;;;17.95;53.01
62055;BME280;48653;51.742;-1.256;2023-07-28T02:31:38;99839.69;;;18.63;51.95
62055;BME280;48653;51.742;-1.256;2023-07-28T02:34:04;99836.69;;;17.76;53.48
62055;BME280;48653;51.742;-1.256;2023-07-28T02:36:28;99834.13;;;17.97;53.26
62055;BME280;48653;51.742;-1.256;2023-07-28T02:38:53;99833.02;;;18.11;52.76
62055;BME280;48653;51.742;-1.256;2023-07-28T02:41:18;99831.26;;;18.50;51.77
62055;BME280;48653;51.742;-1.256;2023-07-28T02:43:43;99830.79;;;18.00;51.89
62055;BME280;48653;51.742;-1.256;2023-07-28T02:46:08;99831.90;;;18.64;51.49
62055;BME280;48653;51.742;-1.256;2023-07-28T02:48:33;99832.60;;;18.13;52.30
62055;BME280;48653;51.742;-1.256;2023-07-28T02:50:58;99832.59;;;18.60;51.67
62055;BME280;48653;51.742;-1.256;2023-07-28T02:53:24;99834.10;;;18.71;50.88
62055;BME280;48653;51.742;-1.256;2023-07-28T02:55:48;99836.36;;;18.64;51.24
62055;BME280;48653;51.742;-1.256;2023-07-28T02:58:14;99841.05;;;19.17;50.76
62055;BME280;48653;51.742;-1.256;2023-07-28T03:00:39;99848.48;;;19.08;50.71
62055;BME280;48653;51.742;-1.256;2023-07-28T03:03:04;99849.46;;;19.10;50.67
62055;BME280;48653;51.742;-1.256;2023-07-28T03:05:29;99847.38;;;18.74;50.40
62055;BME280;48653;51.742;-1.256;2023-07-28T03:07:54;99851.23;;;18.87;51.10
62055;BME280;48653;51.742;-1.256;2023-07-28T03:10:19;99851.85;;;18.29;51.77
62055;BME280;48653;51.742;-1.256;2023-07-28T03:12:44;99846.48;;;19.19;50.40
62055;BME280;48653;51.742;-1.256;2023-07-28T03:15:09;99845.41;;;18.64;51.19
62055;BME280;48653;51.742;-1.256;2023-07-28T03:17:34;99845.69;;;18.70;51.15
62055;BME280;48653;51.742;-1.256;2023-07-28T03:19:59;99848.82;;;17.82;52.82
62055;BME280;48653;51.742;-1.256;2023-07-28T03:22:24;99848.82;;;18.71;50.91
62055;BME280;48653;51.742;-1.256;2023-07-28T03:24:49;99851.73;;;18.45;51.06
62055;BME280;48653;51.742;-1.256;2023-07-28T03:27:14;99851.15;;;18.67;50.44
62055;BME280;48653;51.742;-1.256;2023-07-28T03:29:39;99851.54;;;18.63;50.93
62055;BME280;48653;51.742;-1.256;2023-07-28T03:32:05;99853.76;;;18.35;51.74
62055;BME280;48653;51.742;-1.256;2023-07-28T03:34:29;99854.53;;;18.82;50.87
62055;BME280;48653;51.742;-1.256;2023-07-28T03:36:54;99856.90;;;18.78;50.46
62055;BME280;48653;51.742;-1.256;2023-07-28T03:39:19;99857.81;;;19.31;50.10
62055;BME280;48653;51.742;-1.256;2023-07-28T03:41:44;99864.05;;;18.91;49.98
62055;BME280;48653;51.742;-1.256;2023-07-28T03:44:09;99867.10;;;19.22;50.21
62055;BME280;48653;51.742;-1.256;2023-07-28T03:46:35;99866.19;;;18.92;50.63
62055;BME280;48653;51.742;-1.256;2023-07-28T03:49:00;99862.98;;;18.89;49.91
62055;BME280;48653;51.742;-1.256;2023-07-28T03:51:25;99865.73;;;19.10;50.22
62055;BME280;48653;51.742;-1.256;2023-07-28T03:53:50;99863.14;;;18.51;51.33
62055;BME280;48653;51.742;-1.256;2023-07-28T03:56:15;99866.30;;;18.83;51.00
62055;BME280;48653;51.742;-1.256;2023-07-28T03:58:40;99864.92;;;18.70;51.42
62055;BME280;48653;51.742;-1.256;2023-07-28T04:01:05;99866.55;;;18.48;51.32
62055;BME280;48653;51.742;-1.256;2023-07-28T04:03:30;99864.65;;;18.30;51.87
62055;BME280;48653;51.742;-1.256;2023-07-28T04:05:55;99862.40;;;18.19;51.91
62055;BME280;48653;51.742;-1.256;2023-07-28T04:08:20;99862.39;;;18.73;50.86
62055;BME280;48653;51.742;-1.256;2023-07-28T04:10:46;99868.54;;;17.88;52.61
62055;BME280;48653;51.742;-1.256;2023-07-28T04:13:11;99870.22;;;17.29;53.34
62055;BME280;48653;51.742;-1.256;2023-07-28T04:15:36;99875.14;;;18.25;52.15
62055;BME280;48653;51.742;-1.256;2023-07-28T04:18:01;99878.42;;;17.88;52.60
62055;BME280;48653;51.742;-1.256;2023-07-28T04:20:26;99879.91;;;17.91;52.37
62055;BME280;48653;51.742;-1.256;2023-07-28T04:22:51;99880.01;;;18.11;52.18
62055;BME280;48653;51.742;-1.256;2023-07-28T04:25:16;99882.79;;;18.45;51.83
62055;BME280;48653;51.742;-1.256;2023-07-28T04:27:42;99883.13;;;18.49;51.60
62055;BME280;48653;51.742;-1.256;2023-07-28T04:30:07;99884.48;;;18.32;51.45
62055;BME280;48653;51.742;-1.256;2023-07-28T04:32:32;99885.50;;;18.59;50.88
62055;BME280;48653;51.742;-1.256;2023-07-28T04:34:57;99885.91;;;18.34;51.81
62055;BME280;48653;51.742;-1.256;2023-07-28T04:37:22;99885.43;;;18.43;51.22
62055;BME280;48653;51.742;-1.256;2023-07-28T04:39:47;99885.65;;;18.55;51.13
62055;BME280;48653;51.742;-1.256;2023-07-28T04:42:12;99886.64;;;18.43;51.75
62055;BME280;48653;51.742;-1.256;2023-07-28T04:44:38;99887.41;;;18.41;51.84
62055;BME280;48653;51.742;-1.256;2023-07-28T04:47:02;99885.79;;;18.76;51.05
62055;BME280;48653;51.742;-1.256;2023-07-28T04:49:27;99888.52;;;18.98;50.80
62055;BME280;48653;51.742;-1.256;2023-07-28T04:51:52;99889.37;;;18.48;50.74
62055;BME280;48653;51.742;-1.256;2023-07-28T04:54:17;99892.53;;;18.71;51.36
62055;BME280;48653;51.742;-1.256;2023-07-28T04:56:42;99893.99;;;19.04;50.79
62055;BME280;48653;51.742;-1.256;2023-07-28T04:59:07;99890.98;;;18.97;50.72
62055;BME280;48653;51.742;-1.256;2023-07-28T05:01:33;99893.14;;;18.93;50.93
62055;BME280;48653;51.742;-1.256;2023-07-28T05:03:58;99893.23;;;18.95;50.93
62055;BME280;48653;51.742;-1.256;2023-07-28T05:06:23;99892.96;;;18.77;50.75
62055;BME280;48653;51.742;-1.256;2023-07-28T05:08:48;99892.12;;;19.09;50.23
62055;BME280;48653;51.742;-1.256;2023-07-28T05:11:13;99888.87;;;18.39;50.86
62055;BME280;48653;51.742;-1.256;2023-07-28T05:13:38;99886.14;;;18.58;51.01
62055;BME280;48653;51.742;-1.256;2023-07-28T05:16:04;99885.87;;;18.26;51.24
62055;BME280;48653;51.742;-1.256;2023-07-28T05:18:28;99887.46;;;18.99;50.73
62055;BME280;48653;51.742;-1.256;2023-07-28T05:20:53;99887.60;;;18.64;51.04
62055;BME280;48653;51.742;-1.256;2023-07-28T05:23:19;99885.28;;;19.12;50.44
62055;BME280;48653;51.742;-1.256;2023-07-28T05:25:43;99891.16;;;18.98;50.62
62055;BME280;48653;51.742;-1.256;2023-07-28T05:28:08;99889.92;;;18.81;50.25
62055;BME280;48653;51.742;-1.256;2023-07-28T05:30:33;99893.04;;;18.84;50.53
62055;BME280;48653;51.742;-1.256;2023-07-28T05:32:58;99895.11;;;18.93;50.29
62055;BME280;48653;51.742;-1.256;2023-07-28T05:35:23;99897.74;;;19.12;50.11
62055;BME280;48653;51.742;-1.256;2023-07-28T05:37:48;99894.45;;;19.17;50.18
62055;BME280;48653;51.742;-1.256;2023-07-28T05:40:13;99898.03;;;18.90;50.57
62055;BME280;48653;51.742;-1.256;2023-07-28T05:42:38;99898.10;;;19.09;50.73
62055;BME280;48653;51.742;-1.256;2023-07-28T05:45:04;99899.01;;;18.79;50.89
62055;BME280;48653;51.742;-1.256;2023-07-28T05:47:29;99898.19;;;19.12;50.87
62055;BME280;48653;51.742;-1.256;2023-07-28T05:49:54;99900.27;;;19.34;50.62
62055;BME280;48653;51.742;-1.256;2023-07-28T05:52:19;99900.21;;;18.97;50.55
62055;BME280;48653;51.742;-1.256;2023-07-28T05:54:44;99897.99;;;18.85;50.54
62055;BME280;48653;51.742;-1.256;2023-07-28T05:57:09;99890.06;;;18.93;49.54
62055;BME280;48653;51.742;-1.256;2023-07-28T05:59:34;99889.71;;;19.20;49.59
62055;BME280;48653;51.742;-1.256;2023-07-28T06:01:59;99887.75;;;19.83;49.00
62055;BME280;48653;51.742;-1.256;2023-07-28T06:04:24;99889.27;;;19.59;49.21
62055;BME280;48653;51.742;-1.256;2023-07-28T06:06:49;99886.92;;;19.65;49.56
62055;BME280;48653;51.742;-1.256;2023-07-28T06:09:14;99888.53;;;19.58;50.36
62055;BME280;48653;51.742;-1.256;2023-07-28T06:11:39;99891.43;;;19.64;50.31
62055;BME280;48653;51.742;-1.256;2023-07-28T06:14:04;99897.97;;;19.11;51.30
62055;BME280;48653;51.742;-1.256;2023-07-28T06:16:29;99897.40;;;19.40;51.22
62055;BME280;48653;51.742;-1.256;2023-07-28T06:18:54;99902.28;;;19.18;51.55
62055;BME280;48653;51.742;-1.256;2023-07-28T06:21:19;99895.12;;;19.18;51.80
62055;BME280;48653;51.742;-1.256;2023-07-28T06:23:44;99892.61;;;19.61;51.27
62055;BME280;48653;51.742;-1.256;2023-07-28T06:26:09;99894.00;;;19.79;50.65
62055;BME280;48653;51.742;-1.256;2023-07-28T06:28:34;99894.17;;;19.99;50.26
62055;BME280;48653;51.742;-1.256;2023-07-28T06:30:59;99895.95;;;19.53;50.67
62055;BME280;48653;51.742;-1.256;2023-07-28T06:33:25;99898.68;;;19.42;51.51
62055;BME280;48653;51.742;-1.256;2023-07-28T06:35:49;99896.76;;;19.28;51.27
62055;BME280;48653;51.742;-1.256;2023-07-28T06:38:14;99899.18;;;19.80;50.87
62055;BME280;48653;51.742;-1.256;2023-07-28T06:40:39;99903.16;;;19.31;51.50
62055;BME280;48653;51.742;-1.256;2023-07-28T06:43:04;99905.56;;;19.17;51.88
62055;BME280;48653;51.742;-1.256;2023-07-28T06:45:29;99907.14;;;19.31;51.84
62055;BME280;48653;51.742;-1.256;2023-07-28T06:47:54;99914.02;;;19.14;52.18
62055;BME280;48653;51.742;-1.256;2023-07-28T06:50:19;99912.96;;;19.45;51.52
62055;BME280;48653;51.742;-1.256;2023-07-28T06:52:44;99914.49;;;19.09;52.19
62055;BME280;48653;51.742;-1.256;2023-07-28T06:55:09;99916.12;;;19.12;52.45
62055;BME280;48653;51.742;-1.256;2023-07-28T06:57:34;99918.19;;;19.36;52.15
62055;BME280;48653;51.742;-1.256;2023-07-28T06:59:59;99918.68;;;19.48;52.08
62055;BME280;48653;51.742;-1.256;2023-07-28T07:02:24;99920.84;;;19.58;51.98
62055;BME280;48653;51.742;-1.256;2023-07-28T07:04:49;99918.72;;;19.91;50.98
62055;BME280;48653;51.742;-1.256;2023-07-28T07:07:14;99918.68;;;20.08;50.65
62055;BME280;48653;51.742;-1.256;2023-07-28T07:09:39;99920.00;;;19.81;50.77
62055;BME280;48653;51.742;-1.256;2023-07-28T07:12:07;99924.51;;;20.28;49.65
62055;BME280;48653;51.742;-1.256;2023-07-28T07:14:29;99928.52;;;20.16;49.20
62055;BME280;48653;51.742;-1.256;2023-07-28T07:16:54;99925.63;;;19.75;50.25
62055;BME280;48653;51.742;-1.256;2023-07-28T07:19:19;99927.79;;;20.57;48.97
62055;BME280;48653;51.742;-1.256;2023-07-28T07:21:44;99933.09;;;20.35;48.98
62055;BME280;48653;51.742;-1.256;2023-07-28T07:24:09;99935.25;;;20.06;50.18
62055;BME280;48653;51.742;-1.256;2023-07-28T07:26:34;99939.10;;;20.69;49.26
62055;BME280;48653;51.742;-1.256;2023-07-28T07:28:59;99938.58;;;19.99;50.67
62055;BME280;48653;51.742;-1.256;2023-07-28T07:31:24;99939.36;;;19.92;50.19
62055;BME280;48653;51.742;-1.256;2023-07-28T07:33:50;99939.21;;;20.32;50.04
62055;BME280;48653;51.742;-1.256;2023-07-28T07:36:15;99939.02;;;20.45;50.38
62055;BME280;48653;51.742;-1.256;2023-07-28T07:38:40;99935.34;;;20.24;51.04
62055;BME280;48653;51.742;-1.256;2023-07-28T07:41:06;99935.76;;;19.84;51.88
62055;BME280;48653;51.742;-1.256;2023-07-28T07:43:32;99935.39;;;19.89;52.48
62055;BME280;48653;51.742;-1.256;2023-07-28T07:45:59;99936.41;;;20.35;50.74
62055;BME280;48653;51.742;-1.256;2023-07-28T07:48:24;99937.04;;;19.83;52.03
62055;BME280;48653;51.742;-1.256;2023-07-28T07:50:50;99937.20;;;19.53;51.60
62055;BME280;48653;51.742;-1.256;2023-07-28T07:53:15;99938.75;;;20.32;52.49
62055;BME280;48653;51.742;-1.256;2023-07-28T07:55:41;99940.87;;;19.89;51.99
62055;BME280;48653;51.742;-1.256;2023-07-28T07:58:06;99940.69;;;19.44;52.58
62055;BME280;48653;51.742;-1.256;2023-07-28T08:00:33;99943.10;;;20.34;51.75
62055;BME280;48653;51.742;-1.256;2023-07-28T08:02:58;99938.47;;;20.29;51.76
62055;BME280;48653;51.742;-1.256;2023-07-28T08:05:23;99932.65;;;20.55;51.75
62055;BME280;48653;51.742;-1.256;2023-07-28T08:07:49;99931.02;;;20.66;51.41
62055;BME280;48653;51.742;-1.256;2023-07-28T08:10:15;99932.36;;;20.72;51.33
62055;BME280;48653;51.742;-1.256;2023-07-28T08:12:41;99940.66;;;19.94;52.69
62055;BME280;48653;51.742;-1.256;2023-07-28T08:15:06;99943.48;;;18.63;55.04
62055;BME280;48653;51.742;-1.256;2023-07-28T08:17:31;99946.63;;;18.63;54.60
62055;BME280;48653;51.742;-1.256;2023-07-28T08:19:55;99950.02;;;19.42;53.87
62055;BME280;48653;51.742;-1.256;2023-07-28T08:22:21;99948.03;;;19.68;52.62
62055;BME280;48653;51.742;-1.256;2023-07-28T08:24:46;99941.87;;;19.68;51.90
62055;BME280;48653;51.742;-1.256;2023-07-28T08:27:11;99944.49;;;20.69;49.77
62055;BME280;48653;51.742;-1.256;2023-07-28T08:29:36;99942.42;;;20.22;49.97
62055;BME280;48653;51.742;-1.256;2023-07-28T08:32:01;99939.68;;;20.75;49.61
62055;BME280;48653;51.742;-1.256;2023-07-28T08:34:26;99939.94;;;21.11;48.37
62055;BME280;48653;51.742;-1.256;2023-07-28T08:36:51;99939.98;;;20.70;48.75
62055;BME280;48653;51.742;-1.256;2023-07-28T08:39:18;99935.75;;;19.51;50.95
62055;BME280;48653;51.742;-1.256;2023-07-28T08:41:41;99939.41;;;20.54;48.98
62055;BME280;48653;51.742;-1.256;2023-07-28T08:44:07;99941.50;;;21.44;47.34
62055;BME280;48653;51.742;-1.256;2023-07-28T08:46:31;99942.58;;;21.01;47.08
62055;BME280;48653;51.742;-1.256;2023-07-28T08:48:56;99948.01;;;21.42;45.22
62055;BME280;48653;51.742;-1.256;2023-07-28T08:51:22;99948.25;;;21.59;46.87
62055;BME280;48653;51.742;-1.256;2023-07-28T08:53:46;99948.20;;;21.30;46.45
62055;BME280;48653;51.742;-1.256;2023-07-28T08:56:11;99945.58;;;21.60;46.00
62055;BME280;48653;51.742;-1.256;2023-07-28T08:58:38;99944.56;;;21.94;45.74
62055;BME280;48653;51.742;-1.256;2023-07-28T09:01:02;99945.93;;;21.47;45.77
62055;BME280;48653;51.742;-1.256;2023-07-28T09:03:27;99943.54;;;22.81;44.01
62055;BME280;48653;51.742;-1.256;2023-07-28T09:05:52;99948.53;;;22.69;44.01
62055;BME280;48653;51.742;-1.256;2023-07-28T09:08:17;99949.37;;;23.17;43.36
62055;BME280;48653;51.742;-1.256;2023-07-28T09:10:43;99951.21;;;21.52;46.09
62055;BME280;48653;51.742;-1.256;2023-07-28T09:13:09;99954.01;;;22.17;45.61
62055;BME280;48653;51.742;-1.256;2023-07-28T09:15:35;99958.16;;;22.07;45.36
62055;BME280;48653;51.742;-1.256;2023-07-28T09:18:00;99957.91;;;21.41;45.75
62055;BME280;48653;51.742;-1.256;2023-07-28T09:20:22;99956.60;;;21.08;45.90
62055;BME280;48653;51.742;-1.256;2023-07-28T09:22:51;99960.44;;;21.02;46.48
62055;BME280;48653;51.742;-1.256;2023-07-28T09:25:13;99957.99;;;21.47;45.62
62055;BME280;48653;51.742;-1.256;2023-07-28T09:27:38;99956.34;;;21.50;46.21
62055;BME280;48653;51.742;-1.256;2023-07-28T09:30:03;99957.28;;;21.39;46.17
62055;BME280;48653;51.742;-1.256;2023-07-28T09:32:28;99960.23;;;20.69;46.91
62055;BME280;48653;51.742;-1.256;2023-07-28T09:35:05;99960.93;;;21.43;45.79
62055;BME280;48653;51.742;-1.256;2023-07-28T09:37:18;99961.33;;;20.90;45.94
62055;BME280;48653;51.742;-1.256;2023-07-28T09:39:43;99956.81;;;21.31;45.41
62055;BME280;48653;51.742;-1.256;2023-07-28T09:42:09;99958.01;;;22.11;44.73
62055;BME280;48653;51.742;-1.256;2023-07-28T09:44:34;99960.67;;;21.63;45.92
62055;BME280;48653;51.742;-1.256;2023-07-28T09:47:00;99955.90;;;22.02;45.30
62055;BME280;48653;51.742;-1.256;2023-07-28T09:49:29;99951.34;;;21.70;44.52
62055;BME280;48653;51.742;-1.256;2023-07-28T09:51:54;99957.24;;;21.97;43.20
62055;BME280;48653;51.742;-1.256;2023-07-28T09:54:23;99960.63;;;21.97;44.76
62055;BME280;48653;51.742;-1.256;2023-07-28T09:56:45;99960.72;;;21.75;44.56
62055;BME280;48653;51.742;-1.256;2023-07-28T09:59:11;99966.72;;;22.03;45.17
62055;BME280;48653;51.742;-1.256;2023-07-28T10:01:35;99965.16;;;21.75;44.61
62055;BME280;48653;51.742;-1.256;2023-07-28T10:04:01;99966.06;;;22.38;43.30
62055;BME280;48653;51.742;-1.256;2023-07-28T10:06:27;99961.53;;;22.80;43.29
62055;BME280;48653;51.742;-1.256;2023-07-28T10:08:52;99960.99;;;22.79;42.65
62055;BME280;48653;51.742;-1.256;2023-07-28T10:11:18;99963.28;;;22.92;43.18
62055;BME280;48653;51.742;-1.256;2023-07-28T10:13:44;99959.07;;;22.78;42.27
62055;BME280;48653;51.742;-1.256;2023-07-28T10:16:10;99962.84;;;22.84;42.36
62055;BME280;48653;51.742;-1.256;2023-07-28T10:18:36;99962.97;;;20.92;43.41
62055;BME280;48653;51.742;-1.256;2023-07-28T10:21:05;99955.85;;;22.50;42.49
62055;BME280;48653;51.742;-1.256;2023-07-28T10:23:27;99955.67;;;21.84;42.50
62055;BME280;48653;51.742;-1.256;2023-07-28T10:25:56;99954.29;;;21.85;43.12
62055;BME280;48653;51.742;-1.256;2023-07-28T10:28:26;99950.58;;;21.72;42.73
62055;BME280;48653;51.742;-1.256;2023-07-28T10:30:51;99956.31;;;22.13;42.80
62055;BME280;48653;51.742;-1.256;2023-07-28T10:35:34;99962.85;;;22.23;43.63
62055;BME280;48653;51.742;-1.256;2023-07-28T10:40:28;99968.40;;;22.34;44.45
62055;BME280;48653;51.742;-1.256;2023-07-28T10:42:51;99966.55;;;21.55;44.12
62055;BME280;48653;51.742;-1.256;2023-07-28T10:45:17;99966.83;;;21.24;44.05
62055;BME280;48653;51.742;-1.256;2023-07-28T10:47:42;99962.77;;;21.48;44.25
62055;BME280;48653;51.742;-1.256;2023-07-28T10:50:09;99961.85;;;21.60;43.69
62055;BME280;48653;51.742;-1.256;2023-07-28T10:52:31;99960.06;;;21.62;43.92
62055;BME280;48653;51.742;-1.256;2023-07-28T10:54:56;99966.72;;;21.02;44.79
62055;BME280;48653;51.742;-1.256;2023-07-28T10:57:22;99958.08;;;20.44;44.81
62055;BME280;48653;51.742;-1.256;2023-07-28T10:59:47;99957.19;;;21.55;44.32
62055;BME280;48653;51.742;-1.256;2023-07-28T11:02:14;99961.09;;;20.65;44.15
62055;BME280;48653;51.742;-1.256;2023-07-28T11:04:36;99953.74;;;21.25;44.01
62055;BME280;48653;51.742;-1.256;2023-07-28T11:07:02;99954.32;;;22.06;43.89
62055;BME280;48653;51.742;-1.256;2023-07-28T11:09:27;99955.74;;;21.46;43.53
62055;BME280;48653;51.742;-1.256;2023-07-28T11:11:52;99950.50;;;21.78;43.51
62055;BME280;48653;51.742;-1.256;2023-07-28T11:14:17;99957.31;;;21.22;43.53
62055;BME280;48653;51.742;-1.256;2023-07-28T11:16:42;99957.18;;;21.96;42.12
62055;BME280;48653;51.742;-1.256;2023-07-28T11:19:08;99957.96;;;21.91;41.62
62055;BME280;48653;51.742;-1.256;2023-07-28T11:21:36;99958.47;;;23.01;41.22
62055;BME280;48653;51.742;-1.256;2023-07-28T11:23:57;99957.59;;;22.20;42.15
62055;BME280;48653;51.742;-1.256;2023-07-28T11:26:24;99958.40;;;23.01;41.87
62055;BME280;48653;51.742;-1.256;2023-07-28T11:28:49;99957.13;;;22.89;40.23
62055;BME280;48653;51.742;-1.256;2023-07-28T11:31:14;99957.94;;;24.08;39.69
62055;BME280;48653;51.742;-1.256;2023-07-28T11:33:39;99957.99;;;24.34;41.31
62055;BME280;48653;51.742;-1.256;2023-07-28T11:36:04;99956.61;;;24.95;36.55
62055;BME280;48653;51.742;-1.256;2023-07-28T11:38:30;99957.13;;;24.55;38.32
62055;BME280;48653;51.742;-1.256;2023-07-28T11:40:56;99964.41;;;24.37;38.38
62055;BME280;48653;51.742;-1.256;2023-07-28T11:43:22;99963.39;;;23.96;38.47
62055;BME280;48653;51.742;-1.256;2023-07-28T11:45:48;99961.62;;;24.25;37.94
62055;BME280;48653;51.742;-1.256;2023-07-28T11:48:14;99959.20;;;23.28;39.45
62055;BME280;48653;51.742;-1.256;2023-07-28T11:50:39;99960.30;;;24.29;39.26
62055;BME280;48653;51.742;-1.256;2023-07-28T11:53:03;99953.05;;;24.29;38.60
62055;BME280;48653;51.742;-1.256;2023-07-28T11:55:29;99951.95;;;24.02;38.03
62055;BME280;48653;51.742;-1.256;2023-07-28T11:57:54;99948.52;;;23.47;38.28
62055;BME280;48653;51.742;-1.256;2023-07-28T12:00:28;99947.16;;;23.86;37.51
62055;BME280;48653;51.742;-1.256;2023-07-28T12:02:44;99944.79;;;24.25;38.49
62055;BME280;48653;51.742;-1.256;2023-07-28T12:05:12;99941.21;;;23.96;39.13
62055;BME280;48653;51.742;-1.256;2023-07-28T12:07:34;99937.63;;;24.71;38.72
62055;BME280;48653;51.742;-1.256;2023-07-28T12:10:03;99937.58;;;24.30;39.14
62055;BME280;48653;51.742;-1.256;2023-07-28T12:12:26;99939.29;;;24.12;38.09
62055;BME280;48653;51.742;-1.256;2023-07-28T12:14:50;99942.69;;;24.11;38.26
62055;BME280;48653;51.742;-1.256;2023-07-28T12:17:17;99943.25;;;24.41;38.39
62055;BME280;48653;51.742;-1.256;2023-07-28T12:19:42;99944.44;;;23.95;37.50
62055;BME280;48653;51.742;-1.256;2023-07-28T12:22:05;99943.52;;;24.60;38.04
62055;BME280;48653;51.742;-1.256;2023-07-28T12:24:30;99936.92;;;24.57;37.89
62055;BME280;48653;51.742;-1.256;2023-07-28T12:26:55;99941.85;;;24.78;37.93
62055;BME280;48653;51.742;-1.256;2023-07-28T12:29:20;99945.58;;;23.67;38.56
62055;BME280;48653;51.742;-1.256;2023-07-28T12:31:45;99949.97;;;23.97;37.92
62055;BME280;48653;51.742;-1.256;2023-07-28T12:34:11;99951.78;;;23.34;38.99
62055;BME280;48653;51.742;-1.256;2023-07-28T12:36:36;99951.62;;;24.59;37.41
62055;BME280;48653;51.742;-1.256;2023-07-28T12:39:02;99952.53;;;24.65;37.79
62055;BME280;48653;51.742;-1.256;2023-07-28T12:41:27;99946.79;;;24.04;37.18
62055;BME280;48653;51.742;-1.256;2023-07-28T12:43:52;99949.13;;;23.76;36.85